TimeEST,TemperatureF,Dew PointF,Humidity,Sea Level PressureIn,VisibilityMPH,Wind Direction,Wind SpeedMPH,Gust SpeedMPH,PrecipitationIn,Events,Conditions,WindDirDegrees,DateUTC
12:53 AM,18.0,-2.9,40,30.30,10.0,NW,6.9,-,N/A,,Clear,320,2013-02-10 05:53:00
1:53 AM,15.1,-0.9,49,30.31,10.0,NW,3.5,-,N/A,,Clear,320,2013-02-10 06:53:00
2:53 AM,14.0,-0.9,52,30.33,10.0,WNW,4.6,-,N/A,,Clear,290,2013-02-10 07:53:00
3:53 AM,8.1,-0.9,67,30.34,10.0,Calm,Calm,-,N/A,,Clear,0,2013-02-10 08:53:00
4:53 AM,1.0,-0.9,91,30.36,10.0,Calm,Calm,-,N/A,,Clear,0,2013-02-10 09:53:00
5:53 AM,3.0,-0.9,84,30.38,0.8,Calm,Calm,-,N/A,,Mist,0,2013-02-10 10:53:00
6:00 AM,1.4,-0.4,92,30.38,0.5,Calm,Calm,-,N/A,Fog,Light Freezing Fog,0,2013-02-10 11:00:00
6:06 AM,1.4,-0.4,92,30.38,4.0,Calm,Calm,-,N/A,,Partly Cloudy,0,2013-02-10 11:06:00
6:33 AM,1.4,-2.2,85,30.39,1.0,Calm,Calm,-,N/A,Fog,Light Freezing Fog,0,2013-02-10 11:33:00
6:49 AM,1.4,-0.4,92,30.41,0.2,Calm,Calm,-,N/A,Fog,Light Freezing Fog,0,2013-02-10 11:49:00
6:53 AM,1.9,-0.0,91,30.41,1.5,Calm,Calm,-,N/A,,Mostly Cloudy,0,2013-02-10 11:53:00
6:56 AM,1.4,-0.4,92,30.41,3.0,Calm,Calm,-,N/A,,Mostly Cloudy,0,2013-02-10 11:56:00
7:08 AM,1.4,-2.2,85,30.42,6.0,Calm,Calm,-,N/A,,Scattered Clouds,0,2013-02-10 12:08:00
7:44 AM,1.4,1.4,100,30.44,1.5,Calm,Calm,-,N/A,,Clear,0,2013-02-10 12:44:00
7:48 AM,3.2,1.4,92,30.44,3.0,Calm,Calm,-,N/A,,Clear,0,2013-02-10 12:48:00
7:53 AM,3.0,1.0,91,30.44,6.0,Calm,Calm,-,N/A,,Clear,0,2013-02-10 12:53:00
8:53 AM,7.0,5.0,92,30.45,9.0,Calm,Calm,-,N/A,,Clear,0,2013-02-10 13:53:00
9:53 AM,18.0,1.0,48,30.45,10.0,NNE,5.8,-,N/A,,Clear,30,2013-02-10 14:53:00
10:53 AM,21.9,1.9,42,30.47,10.0,Calm,Calm,-,N/A,,Clear,0,2013-02-10 15:53:00
11:53 AM,25.0,5.0,43,30.44,10.0,NE,3.5,-,0.00,,Clear,40,2013-02-10 16:53:00
12:53 PM,27.0,3.9,37,30.41,10.0,Calm,Calm,-,N/A,,Clear,0,2013-02-10 17:53:00
1:53 PM,30.9,3.9,32,30.39,10.0,Calm,Calm,-,N/A,,Clear,0,2013-02-10 18:53:00
2:53 PM,30.9,3.9,32,30.38,2.5,Calm,Calm,-,N/A,,Haze,0,2013-02-10 19:53:00
3:10 PM,33.8,3.2,28,30.39,10.0,Calm,Calm,-,N/A,,Clear,0,2013-02-10 20:10:00
3:53 PM,30.9,10.9,43,30.37,10.0,Calm,Calm,-,N/A,,Clear,0,2013-02-10 20:53:00
4:53 PM,32.0,6.1,34,30.37,10.0,Calm,Calm,-,N/A,,Clear,0,2013-02-10 21:53:00
5:53 PM,27.0,6.1,41,30.38,10.0,Calm,Calm,-,N/A,,Clear,0,2013-02-10 22:53:00
6:53 PM,21.9,14.0,72,30.38,10.0,Calm,Calm,-,N/A,,Clear,0,2013-02-10 23:53:00
7:53 PM,24.1,12.9,62,30.38,10.0,South,5.8,-,N/A,,Clear,170,2013-02-11 00:53:00
8:53 PM,24.1,12.9,62,30.39,10.0,South,5.8,-,N/A,,Clear,180,2013-02-11 01:53:00
9:53 PM,18.0,10.9,74,30.36,10.0,Calm,Calm,-,N/A,,Clear,0,2013-02-11 02:53:00
10:53 PM,17.1,10.9,77,30.37,10.0,Calm,Calm,-,N/A,,Clear,0,2013-02-11 03:53:00
11:53 PM,19.0,14.0,81,30.35,10.0,Calm,Calm,-,N/A,,Clear,0,2013-02-11 04:53:00